createdAt,value
2023-01-25T00:00:28.487Z,6.55
2023-01-25T00:05:28.703Z,6.30
2023-01-25T00:10:27.485Z,6.57
2023-01-25T00:15:26.263Z,7.00
2023-01-25T00:20:25.077Z,7.18
2023-01-25T00:25:25.227Z,7.80
2023-01-25T00:30:23.913Z,7.00
2023-01-25T00:35:24.623Z,6.90
2023-01-25T00:40:24.669Z,7.05
2023-01-25T00:45:23.644Z,6.45
2023-01-25T00:50:22.414Z,7.00
2023-01-25T00:55:21.112Z,6.63
2023-01-25T01:00:22.541Z,5.75
2023-01-25T01:05:21.540Z,6.60
2023-01-25T01:10:22.882Z,6.88
2023-01-25T01:15:24.855Z,6.10
2023-01-25T01:20:23.912Z,7.35
2023-01-25T01:25:24.309Z,7.93
2023-01-25T01:30:25.910Z,7.18
2023-01-25T01:35:24.678Z,6.70
2023-01-25T01:40:25.084Z,6.07
2023-01-25T01:45:52.200Z,6.60
2023-01-25T01:51:01.752Z,6.17
2023-01-25T01:56:03.886Z,6.45
2023-01-25T02:01:04.345Z,6.60
2023-01-25T02:06:06.535Z,6.15
2023-01-25T02:11:06.344Z,6.53
2023-01-25T02:16:11.997Z,6.75
2023-01-25T02:21:12.118Z,6.97
2023-01-25T02:26:12.598Z,7.40
2023-01-25T02:31:11.537Z,6.93
2023-01-25T02:36:23.414Z,7.28
2023-01-25T02:41:28.319Z,7.13
2023-01-25T02:46:31.881Z,8.45
2023-01-25T02:51:33.148Z,7.18
2023-01-25T02:56:34.237Z,9.70
2023-01-25T03:01:34.356Z,8.02
2023-01-25T03:06:34.621Z,8.65
2023-01-25T03:11:35.495Z,8.05
2023-01-25T03:16:34.468Z,8.25
2023-01-25T03:21:34.426Z,9.38
2023-01-25T03:26:55.429Z,9.43
2023-01-25T03:31:59.129Z,9.63
2023-01-25T03:36:58.158Z,10.23
2023-01-25T03:41:58.743Z,9.93
2023-01-25T03:46:57.817Z,12.30
2023-01-25T03:51:58.126Z,10.63
2023-01-25T03:57:08.631Z,10.98
2023-01-25T04:02:17.039Z,9.45
2023-01-25T04:07:15.875Z,9.00
2023-01-25T04:12:16.642Z,9.63
2023-01-25T04:17:15.819Z,10.65
2023-01-25T04:22:34.938Z,10.07
2023-01-25T04:27:36.812Z,10.90
2023-01-25T04:32:40.387Z,10.32
2023-01-25T04:38:00.819Z,11.45
2023-01-25T04:43:08.845Z,10.70
2023-01-25T04:48:09.993Z,11.15
2023-01-25T04:53:12.997Z,12.13
2023-01-25T04:58:13.534Z,11.60
2023-01-25T05:03:13.367Z,12.23
2023-01-25T05:08:13.201Z,10.80
2023-01-25T05:13:13.503Z,14.15
2023-01-25T05:18:12.550Z,11.98
2023-01-25T05:23:11.632Z,12.30
2023-01-25T05:28:11.030Z,11.63
2023-01-25T05:33:49.678Z,13.25
2023-01-25T05:38:50.373Z,13.18
2023-01-25T05:43:50.296Z,15.88
2023-01-25T05:48:51.149Z,13.05
2023-01-25T05:53:50.760Z,14.48
2023-01-25T05:58:54.403Z,12.13
2023-01-25T06:03:55.179Z,12.40
2023-01-25T06:08:56.397Z,12.50
2023-01-25T06:13:55.300Z,15.20
2023-01-25T06:18:55.426Z,17.05
2023-01-25T06:24:16.894Z,17.45
2023-01-25T06:29:15.820Z,18.48
2023-01-25T06:34:17.098Z,18.10
2023-01-25T06:39:16.044Z,15.93
2023-01-25T06:44:14.724Z,16.55
2023-01-25T06:49:13.466Z,14.25
2023-01-25T06:54:13.553Z,12.70
2023-01-25T06:59:12.265Z,12.60
2023-01-25T07:04:12.420Z,14.80
2023-01-25T07:09:14.905Z,14.48
2023-01-25T07:14:13.619Z,15.32
2023-01-25T07:19:14.165Z,16.30
2023-01-25T07:24:21.162Z,15.23
2023-01-25T07:29:20.271Z,17.38
2023-01-25T07:34:19.078Z,17.05
2023-01-25T07:39:19.234Z,14.70
2023-01-25T07:44:18.007Z,13.75
2023-01-25T07:49:21.225Z,15.05
2023-01-25T07:54:21.572Z,15.65
2023-01-25T07:59:20.380Z,19.35
2023-01-25T08:04:19.378Z,19.05
2023-01-25T08:09:20.674Z,16.20
2023-01-25T08:14:20.988Z,16.17
2023-01-25T08:19:20.398Z,14.60
2023-01-25T08:24:20.834Z,13.73
2023-01-25T08:29:21.233Z,14.68
2023-01-25T08:34:19.990Z,13.85
2023-01-25T08:39:19.015Z,13.18
2023-01-25T08:44:22.640Z,12.35
2023-01-25T08:49:22.976Z,13.07
2023-01-25T08:54:21.769Z,14.15
2023-01-25T08:59:20.498Z,13.55
2023-01-25T09:04:19.358Z,11.70
2023-01-25T09:09:19.707Z,12.63
2023-01-25T09:14:18.456Z,13.30
2023-01-25T09:19:18.545Z,10.90
2023-01-25T09:24:17.310Z,12.23
2023-01-25T09:29:17.485Z,11.57
2023-01-25T09:34:17.271Z,11.40
2023-01-25T09:39:16.125Z,10.25
2023-01-25T09:44:31.672Z,12.52
2023-01-25T09:49:46.962Z,11.40
2023-01-25T09:54:48.512Z,12.48
2023-01-25T09:59:51.376Z,11.20
2023-01-25T10:04:52.583Z,12.80
2023-01-25T10:10:01.846Z,12.65
2023-01-25T10:15:02.204Z,10.00
2023-01-25T10:20:21.439Z,10.93
2023-01-25T10:25:33.287Z,10.68
2023-01-25T10:30:41.624Z,10.95
2023-01-25T10:35:47.197Z,13.10
2023-01-25T10:40:53.894Z,11.60
2023-01-25T10:45:54.054Z,10.65
2023-01-25T10:50:54.931Z,9.52
2023-01-25T10:56:20.184Z,11.18
2023-01-25T11:01:32.647Z,11.45
2023-01-25T11:06:36.707Z,10.35
2023-01-25T11:11:40.655Z,10.73
2023-01-25T11:16:42.519Z,10.02
2023-01-25T11:21:53.660Z,8.75
2023-01-25T11:26:52.519Z,10.77
2023-01-25T11:31:57.863Z,9.82
2023-01-25T11:37:18.069Z,8.98
2023-01-25T11:42:29.476Z,11.55
2023-01-25T11:47:40.874Z,10.02
2023-01-25T11:52:56.656Z,12.80
2023-01-25T11:58:28.094Z,11.10
2023-01-25T12:04:12.372Z,10.98
2023-01-25T12:09:26.257Z,9.15
2023-01-25T12:19:48.296Z,9.45
2023-01-25T12:24:57.036Z,9.05
2023-01-25T12:30:00.205Z,8.88
2023-01-25T12:35:23.132Z,10.25
2023-01-25T12:40:38.365Z,12.60
2023-01-25T12:45:39.790Z,8.32
2023-01-25T12:50:46.639Z,10.15
2023-01-25T12:55:46.355Z,9.63
2023-01-25T13:00:53.996Z,8.93
2023-01-25T13:05:58.206Z,9.77
2023-01-25T13:11:09.402Z,8.15
2023-01-25T13:16:43.332Z,8.05
2023-01-25T13:21:47.474Z,8.32
2023-01-25T13:27:05.017Z,7.97
2023-01-25T13:32:05.994Z,9.32
2023-01-25T13:37:19.143Z,9.05
2023-01-25T13:42:24.075Z,10.07
2023-01-25T13:47:25.385Z,9.88
2023-01-25T13:52:27.130Z,10.73
2023-01-25T13:57:28.048Z,11.43
2023-01-25T14:02:27.878Z,13.23
2023-01-25T14:07:34.061Z,10.45
2023-01-25T14:12:37.748Z,9.50
2023-01-25T14:22:36.883Z,10.80
2023-01-25T14:27:36.925Z,9.75
2023-01-25T14:32:37.036Z,10.40
2023-01-25T14:37:43.758Z,9.43
2023-01-25T14:42:42.619Z,8.98
2023-01-25T14:47:45.267Z,9.88
2023-01-25T14:52:48.600Z,9.90
2023-01-25T14:57:49.405Z,10.00
2023-01-25T15:02:51.195Z,12.63
2023-01-25T15:07:53.134Z,9.73
2023-01-25T15:13:13.753Z,10.63
2023-01-25T15:18:47.217Z,10.00
2023-01-25T15:23:49.349Z,14.95
2023-01-25T15:28:50.491Z,14.07
2023-01-25T15:33:49.639Z,11.60
2023-01-25T15:38:49.869Z,10.18
2023-01-25T15:43:49.740Z,13.68
2023-01-25T15:48:50.595Z,12.13
2023-01-25T15:53:51.182Z,11.07
2023-01-25T15:58:53.074Z,11.70
2023-01-25T16:03:51.990Z,11.52
2023-01-25T16:08:52.255Z,11.15
2023-01-25T16:13:51.419Z,11.80
2023-01-25T16:18:50.693Z,15.45
2023-01-25T16:23:49.447Z,12.02
2023-01-25T16:28:49.577Z,14.50
2023-01-25T16:33:48.383Z,13.65
2023-01-25T16:38:47.646Z,11.48
2023-01-25T16:43:48.077Z,10.40
2023-01-25T16:48:50.077Z,11.15
2023-01-25T16:53:49.951Z,15.30
2023-01-25T16:58:49.699Z,12.40
2023-01-25T17:03:49.926Z,12.68
2023-01-25T17:08:49.520Z,10.63
2023-01-25T17:13:51.701Z,10.30
2023-01-25T17:18:55.552Z,10.27
2023-01-25T17:23:55.321Z,10.85
2023-01-25T17:28:56.560Z,13.05
2023-01-25T17:33:57.302Z,13.18
2023-01-25T17:38:56.194Z,11.45
2023-01-25T17:43:55.137Z,10.68
2023-01-25T17:48:54.437Z,12.60
2023-01-25T17:53:54.806Z,11.80
2023-01-25T17:58:54.001Z,11.90
2023-01-25T18:03:54.590Z,10.20
2023-01-25T18:08:57.203Z,13.50
2023-01-25T18:13:58.428Z,12.32
2023-01-25T18:18:59.289Z,11.75
2023-01-25T18:24:02.000Z,10.70
2023-01-25T18:29:21.238Z,11.47
2023-01-25T18:34:20.027Z,12.20
2023-01-25T18:39:20.242Z,11.57
2023-01-25T18:44:20.003Z,11.18
2023-01-25T18:49:18.965Z,12.82
2023-01-25T18:54:19.247Z,12.35
2023-01-25T18:59:18.088Z,13.00
2023-01-25T19:04:17.308Z,12.75
2023-01-25T19:09:16.158Z,11.98
2023-01-25T19:14:16.575Z,11.82
2023-01-25T19:19:16.038Z,10.77
2023-01-25T19:24:19.710Z,12.95
2023-01-25T19:29:20.061Z,12.35
2023-01-25T19:34:18.857Z,14.32
2023-01-25T19:39:19.558Z,13.60
2023-01-25T19:44:21.044Z,11.75
2023-01-25T19:49:20.928Z,12.75
2023-01-25T19:54:21.198Z,12.30
2023-01-25T19:59:25.276Z,11.75
2023-01-25T20:04:25.364Z,12.10
2023-01-25T20:09:28.154Z,15.38
2023-01-25T20:14:28.677Z,13.77
2023-01-25T20:19:28.237Z,14.00
2023-01-25T20:24:29.349Z,11.77
2023-01-25T20:29:31.132Z,12.40
2023-01-25T20:34:30.815Z,12.00
2023-01-25T20:39:33.657Z,12.70
2023-01-25T20:44:34.239Z,11.63
2023-01-25T20:49:33.557Z,12.98
2023-01-25T20:54:32.345Z,12.50
2023-01-25T20:59:31.131Z,11.48
2023-01-25T21:04:31.261Z,12.15
2023-01-25T21:09:30.593Z,11.32
2023-01-25T21:14:29.398Z,11.52
2023-01-25T21:19:28.247Z,9.85
2023-01-25T21:24:28.339Z,12.32
2023-01-25T21:29:27.159Z,11.82
2023-01-25T21:34:25.976Z,12.50
2023-01-25T21:39:24.736Z,13.50
2023-01-25T21:44:42.383Z,11.43
2023-01-25T21:50:00.604Z,12.18
2023-01-25T21:54:59.590Z,12.48
2023-01-25T21:59:59.856Z,12.90
2023-01-25T22:04:58.621Z,11.43
2023-01-25T22:09:57.400Z,11.30
2023-01-25T22:14:56.102Z,11.95
2023-01-25T22:19:56.353Z,13.90
2023-01-25T22:24:56.855Z,12.50
2023-01-25T22:29:55.747Z,12.75
2023-01-25T22:34:56.209Z,13.85
2023-01-25T22:39:58.548Z,12.80
2023-01-25T22:44:57.430Z,14.73
2023-01-25T22:49:57.693Z,12.82
2023-01-25T22:54:56.385Z,13.68
2023-01-25T22:59:55.212Z,15.00
2023-01-25T23:04:54.313Z,14.68
2023-01-25T23:09:54.513Z,14.13
2023-01-25T23:14:54.058Z,13.02
2023-01-25T23:19:52.958Z,14.10
2023-01-25T23:24:51.671Z,14.63
2023-01-25T23:29:52.377Z,13.05
2023-01-25T23:34:53.338Z,14.75
2023-01-25T23:39:52.165Z,13.97
2023-01-25T23:44:52.668Z,16.87
2023-01-25T23:49:51.489Z,14.30
2023-01-25T23:54:50.431Z,15.88
2023-01-25T23:59:49.288Z,15.43
